Time;durP1;ratioP1;P1;durP2;ratioP2;P2;SDS_P1;SDS_P2;PMS_P1;PMS_P2;Temp;Humidity;BMP_temperature;BMP_pressure;BME280_temperature;BME280_humidity;BME280_pressure;Samples;Min_cycle;Max_cycle;Signal;HPM_P1;HPM_P2
2023/08/23 00:00:49;;;;;;;7.85;1.45;;;19.90;99.90;;;;;;5015616;28;20378;-86
2023/08/23 00:03:15;;;;;;;2.55;1.30;;;19.80;99.90;;;;;;5032129;28;20022;-87
2023/08/23 00:05:43;;;;;;;5.45;1.42;;;19.80;99.90;;;;;;5014492;28;20032;-87
2023/08/23 00:08:09;;;;;;;4.28;1.63;;;19.90;99.90;;;;;;5031429;28;20033;-85
2023/08/23 00:10:35;;;;;;;5.75;1.70;;;19.80;99.90;;;;;;5031366;28;20061;-86
2023/08/23 00:13:00;;;;;;;9.27;1.52;;;19.80;99.90;;;;;;5031205;28;20068;-86
2023/08/23 00:15:26;;;;;;;8.30;1.70;;;19.80;99.90;;;;;;5031658;28;20033;-89
2023/08/23 00:17:51;;;;;;;3.58;1.30;;;19.90;99.90;;;;;;5013741;28;20022;-90
2023/08/23 00:20:17;;;;;;;5.18;1.50;;;19.90;99.90;;;;;;5031045;28;20036;-87
2023/08/23 00:22:43;;;;;;;5.57;1.67;;;19.90;99.90;;;;;;5031925;28;20029;-85
2023/08/23 00:25:08;;;;;;;5.28;1.50;;;19.80;99.90;;;;;;5030747;28;20025;-86
2023/08/23 00:27:34;;;;;;;4.25;1.40;;;19.90;99.90;;;;;;5031246;28;20037;-89
2023/08/23 00:29:59;;;;;;;2.58;1.30;;;19.80;99.90;;;;;;5031099;28;20025;-86
2023/08/23 00:32:25;;;;;;;2.20;1.17;;;19.90;99.90;;;;;;5031003;28;20086;-85
2023/08/23 00:34:51;;;;;;;4.80;1.40;;;19.90;99.90;;;;;;5031092;28;20512;-87
2023/08/23 00:37:17;;;;;;;4.72;1.75;;;19.80;99.90;;;;;;5030926;28;20037;-86
2023/08/23 00:39:43;;;;;;;3.97;1.30;;;19.90;99.90;;;;;;5031644;28;20524;-86
2023/08/23 00:42:10;;;;;;;3.40;1.42;;;19.80;99.90;;;;;;5029987;28;20021;-87
2023/08/23 00:44:35;;;;;;;7.38;1.60;;;19.80;99.90;;;;;;5031210;28;20053;-89
2023/08/23 00:47:01;;;;;;;6.30;1.55;;;19.80;99.90;;;;;;5030801;28;20118;-88
2023/08/23 00:49:33;;;;;;;4.85;1.58;;;19.80;99.90;;;;;;5030141;28;20405;-86
2023/08/23 00:52:00;;;;;;;3.88;1.42;;;19.80;99.90;;;;;;5031110;28;20497;-86
2023/08/23 00:54:26;;;;;;;5.72;1.90;;;19.70;99.90;;;;;;5030641;28;20152;-87
2023/08/23 00:56:51;;;;;;;3.47;1.83;;;19.60;99.90;;;;;;5029398;28;20044;-88
2023/08/23 00:59:18;;;;;;;8.30;1.50;;;19.60;99.90;;;;;;5014004;28;20388;-91
2023/08/23 01:01:44;;;;;;;4.72;1.58;;;19.50;99.90;;;;;;5031660;28;20482;-86
2023/08/23 01:04:10;;;;;;;3.70;1.50;;;19.50;99.90;;;;;;5030264;28;20035;-87
2023/08/23 01:06:52;;;;;;;7.10;1.50;;;19.60;99.90;;;;;;5000620;28;20405;-86
2023/08/23 01:09:59;;;;;;;1.88;1.40;;;19.50;99.90;;;;;;5009757;28;20129;-86
2023/08/23 01:12:34;;;;;;;9.87;1.80;;;19.40;99.90;;;;;;5008868;28;20033;-85
2023/08/23 01:15:09;;;;;;;3.67;1.67;;;19.30;99.90;;;;;;5031091;28;20079;-90
2023/08/23 01:17:41;;;;;;;5.65;1.98;;;19.30;99.90;;;;;;5030426;28;20049;-85
2023/08/23 01:20:10;;;;;;;9.82;2.05;;;19.30;99.90;;;;;;5029593;28;20076;-86
2023/08/23 01:22:43;;;;;;;3.33;1.60;;;19.30;99.90;;;;;;5029737;28;20029;-89
2023/08/23 01:25:08;;;;;;;3.42;2.05;;;19.30;99.90;;;;;;5029921;28;20022;-84
2023/08/23 01:27:34;;;;;;;4.90;2.13;;;19.20;99.90;;;;;;5013422;28;20398;-86
2023/08/23 01:30:00;;;;;;;8.98;2.00;;;19.10;99.90;;;;;;5029679;28;20116;-86
2023/08/23 01:32:54;;;;;;;5.13;1.70;;;19.10;99.90;;;;;;5012216;28;20117;-86
2023/08/23 01:35:28;;;;;;;2.53;1.45;;;19.10;99.90;;;;;;5030289;28;20025;-86
2023/08/23 01:37:55;;;;;;;4.32;1.60;;;19.20;99.90;;;;;;5030048;28;20041;-85
2023/08/23 01:40:22;;;;;;;3.03;1.70;;;19.20;99.90;;;;;;5030329;28;20373;-86
2023/08/23 01:42:49;;;;;;;4.77;2.00;;;19.20;99.90;;;;;;5027893;28;20026;-86
2023/08/23 01:45:15;;;;;;;5.72;1.95;;;19.20;99.90;;;;;;5029730;28;20033;-86
2023/08/23 01:47:40;;;;;;;4.35;1.92;;;19.20;99.90;;;;;;5029909;28;20681;-86
2023/08/23 01:50:06;;;;;;;4.10;1.58;;;19.30;99.90;;;;;;5028208;28;20017;-87
2023/08/23 01:52:32;;;;;;;9.00;2.72;;;19.30;99.90;;;;;;5030205;28;20057;-91
2023/08/23 01:54:58;;;;;;;4.00;1.80;;;19.30;99.90;;;;;;5029977;28;20478;-85
2023/08/23 01:57:23;;;;;;;5.57;2.00;;;19.30;99.90;;;;;;5028786;28;20025;-85
2023/08/23 01:59:50;;;;;;;4.00;1.60;;;19.20;99.90;;;;;;5030133;28;20030;-86
2023/08/23 02:02:16;;;;;;;4.78;1.80;;;19.30;99.90;;;;;;5029273;28;20037;-86
2023/08/23 02:04:42;;;;;;;5.05;1.90;;;19.30;99.90;;;;;;5011976;28;20274;-88
2023/08/23 02:07:07;;;;;;;2.58;1.60;;;19.30;99.90;;;;;;5029662;28;20032;-86
2023/08/23 02:09:33;;;;;;;4.00;2.05;;;19.20;99.90;;;;;;5029431;28;20040;-89
2023/08/23 02:11:59;;;;;;;8.13;2.00;;;19.30;99.90;;;;;;5010116;28;20033;-86
2023/08/23 02:14:25;;;;;;;7.78;2.10;;;19.30;99.90;;;;;;4997378;28;20033;-86
2023/08/23 02:16:50;;;;;;;3.92;2.03;;;19.20;99.90;;;;;;5025277;28;20440;-87
2023/08/23 02:19:16;;;;;;;4.22;1.90;;;19.10;99.90;;;;;;5029567;28;20497;-89
2023/08/23 02:21:42;;;;;;;4.57;1.98;;;19.10;99.90;;;;;;5029973;28;20631;-89
2023/08/23 02:24:07;;;;;;;3.63;2.03;;;19.10;99.90;;;;;;5029910;28;20039;-89
2023/08/23 02:26:35;;;;;;;8.93;1.90;;;19.10;99.90;;;;;;5029357;28;20055;-89
2023/08/23 02:29:01;;;;;;;6.13;2.17;;;19.10;99.90;;;;;;4992427;28;20072;-89
2023/08/23 02:31:27;;;;;;;7.82;2.05;;;19.10;99.90;;;;;;4992835;28;20109;-89
2023/08/23 02:33:53;;;;;;;5.07;2.03;;;19.20;99.90;;;;;;5005118;28;20547;-87
2023/08/23 02:36:19;;;;;;;3.13;2.00;;;19.10;99.90;;;;;;5029938;28;20509;-92
2023/08/23 02:38:44;;;;;;;3.50;1.90;;;19.10;99.90;;;;;;5029717;28;20409;-91
2023/08/23 02:41:10;;;;;;;6.90;2.22;;;19.00;99.90;;;;;;5029143;28;20048;-90
2023/08/23 02:43:35;;;;;;;2.53;1.80;;;18.90;99.90;;;;;;5027264;28;20032;-90
2023/08/23 02:46:01;;;;;;;4.30;2.00;;;18.90;99.90;;;;;;5028533;28;20032;-87
2023/08/23 02:48:29;;;;;;;3.63;2.00;;;18.90;99.90;;;;;;5029058;28;20123;-87
2023/08/23 02:50:55;;;;;;;5.38;2.55;;;18.90;99.90;;;;;;5012000;28;20030;-86
2023/08/23 02:53:20;;;;;;;4.10;1.92;;;18.80;99.90;;;;;;5029518;28;20029;-90
2023/08/23 02:55:46;;;;;;;4.13;2.03;;;18.70;99.90;;;;;;5011348;28;20088;-88
2023/08/23 02:58:11;;;;;;;4.20;1.85;;;18.70;99.90;;;;;;5007880;28;20032;-90
2023/08/23 03:00:37;;;;;;;4.38;2.20;;;18.80;99.90;;;;;;5020336;28;20033;-90
2023/08/23 03:03:03;;;;;;;5.93;2.03;;;18.70;99.90;;;;;;5011310;28;20516;-86
2023/08/23 03:05:29;;;;;;;2.67;2.00;;;18.70;99.90;;;;;;5029092;28;20053;-86
2023/08/23 03:07:54;;;;;;;6.40;2.40;;;18.70;99.90;;;;;;5029667;28;20041;-87
2023/08/23 03:10:20;;;;;;;6.63;2.40;;;18.60;99.90;;;;;;5028322;28;20055;-86
2023/08/23 03:12:46;;;;;;;5.28;2.30;;;18.60;99.90;;;;;;5027108;28;20029;-86
2023/08/23 03:15:11;;;;;;;4.22;2.17;;;18.50;99.90;;;;;;5028765;28;20110;-88
2023/08/23 03:17:37;;;;;;;4.60;2.42;;;18.50;99.90;;;;;;5026161;28;20017;-87
2023/08/23 03:20:03;;;;;;;7.38;2.78;;;18.40;99.90;;;;;;4991545;28;20494;-88
2023/08/23 03:22:29;;;;;;;5.38;2.95;;;18.30;99.90;;;;;;5021609;28;20055;-88
2023/08/23 03:24:54;;;;;;;4.07;2.90;;;18.30;99.90;;;;;;5010848;28;20116;-89
2023/08/23 03:27:21;;;;;;;10.02;2.80;;;18.40;99.90;;;;;;5027895;28;20033;-89
2023/08/23 03:29:47;;;;;;;5.55;2.97;;;18.30;99.90;;;;;;5028275;28;20041;-88
2023/08/23 03:32:14;;;;;;;2.85;2.50;;;18.30;99.90;;;;;;5004519;28;20037;-86
2023/08/23 03:34:40;;;;;;;3.33;2.63;;;18.40;99.90;;;;;;5024467;28;20057;-89
2023/08/23 03:37:06;;;;;;;3.95;2.75;;;18.30;99.90;;;;;;5009716;28;20110;-89
2023/08/23 03:39:32;;;;;;;7.18;3.55;;;18.30;99.90;;;;;;5027806;28;20021;-89
2023/08/23 03:41:58;;;;;;;6.25;2.80;;;18.30;99.90;;;;;;5010973;28;20044;-89
2023/08/23 03:44:23;;;;;;;4.65;2.60;;;18.30;99.90;;;;;;5009446;28;20029;-88
2023/08/23 03:46:49;;;;;;;5.32;3.20;;;18.30;99.90;;;;;;5031816;28;20056;-89
2023/08/23 03:49:15;;;;;;;4.82;2.75;;;18.30;99.90;;;;;;5031794;28;20033;-88
2023/08/23 03:51:40;;;;;;;6.03;2.70;;;18.30;99.90;;;;;;5028951;28;20478;-88
2023/08/23 03:54:06;;;;;;;9.65;2.72;;;18.40;99.90;;;;;;5009414;28;20025;-90
2023/08/23 03:56:31;;;;;;;4.65;2.92;;;18.40;99.90;;;;;;5010038;28;20049;-89
2023/08/23 03:58:58;;;;;;;4.80;2.40;;;18.50;99.90;;;;;;5012515;28;20040;-90
2023/08/23 04:01:24;;;;;;;3.75;2.42;;;18.50;99.90;;;;;;5035586;28;20574;-89
2023/08/23 04:03:50;;;;;;;3.25;2.30;;;18.50;99.90;;;;;;5013644;28;20018;-88
2023/08/23 04:06:15;;;;;;;6.88;2.85;;;18.50;99.90;;;;;;5024066;28;20084;-88
2023/08/23 04:08:41;;;;;;;5.22;2.90;;;18.40;99.90;;;;;;5030263;28;20060;-89
2023/08/23 04:11:07;;;;;;;6.05;3.03;;;18.40;99.90;;;;;;5013925;28;20033;-89
2023/08/23 04:13:32;;;;;;;6.90;2.75;;;18.40;99.90;;;;;;5031534;28;20374;-89
2023/08/23 04:15:58;;;;;;;7.43;2.80;;;18.50;99.90;;;;;;5029384;28;20021;-88
2023/08/23 04:18:24;;;;;;;3.25;2.72;;;18.50;99.90;;;;;;5031012;28;20105;-90
2023/08/23 04:21:00;;;;;;;5.05;2.60;;;18.50;99.90;;;;;;5031794;28;20053;-88
2023/08/23 04:23:26;;;;;;;4.80;2.70;;;18.50;99.90;;;;;;5020125;28;20030;-89
2023/08/23 04:25:51;;;;;;;5.95;2.60;;;18.50;99.90;;;;;;5013392;28;20047;-88
2023/08/23 04:28:17;;;;;;;7.15;3.13;;;18.50;99.90;;;;;;5030704;28;20044;-90
2023/08/23 04:30:42;;;;;;;8.15;2.70;;;18.50;99.90;;;;;;5031358;28;20033;-90
2023/08/23 04:33:10;;;;;;;3.13;2.50;;;18.50;99.90;;;;;;5030554;28;20033;-89
2023/08/23 04:35:36;;;;;;;5.85;2.97;;;18.50;99.90;;;;;;5031202;28;20040;-90
2023/08/23 04:38:01;;;;;;;6.57;3.10;;;18.40;99.90;;;;;;5031121;28;20018;-89
2023/08/23 04:40:28;;;;;;;3.83;2.60;;;18.40;99.90;;;;;;5032095;28;20030;-89
2023/08/23 04:42:53;;;;;;;8.30;3.10;;;18.50;99.90;;;;;;5013904;28;20017;-91
2023/08/23 04:45:19;;;;;;;5.88;2.70;;;18.40;99.90;;;;;;5031163;28;20026;-89
2023/08/23 04:47:45;;;;;;;6.70;2.85;;;18.40;99.90;;;;;;5026531;28;20045;-88
2023/08/23 04:50:11;;;;;;;5.10;2.90;;;18.40;99.90;;;;;;5029352;28;20026;-89
2023/08/23 04:52:36;;;;;;;4.72;2.60;;;18.30;99.90;;;;;;5030862;28;20026;-89
2023/08/23 04:55:04;;;;;;;7.70;2.55;;;18.40;99.90;;;;;;5030782;28;20105;-90
2023/08/23 04:57:29;;;;;;;3.88;2.70;;;18.40;99.90;;;;;;5030963;28;20521;-89
2023/08/23 04:59:55;;;;;;;4.72;3.00;;;18.30;99.90;;;;;;5031406;28;20108;-88
2023/08/23 05:02:21;;;;;;;4.68;3.08;;;18.20;99.90;;;;;;5017880;28;20379;-88
2023/08/23 05:04:46;;;;;;;7.22;2.63;;;18.20;99.90;;;;;;4993649;28;20037;-89
2023/08/23 05:07:12;;;;;;;5.20;3.17;;;18.30;99.90;;;;;;4993987;28;20021;-89
2023/08/23 05:09:38;;;;;;;6.80;3.05;;;18.30;99.90;;;;;;5011359;28;20065;-89
2023/08/23 05:12:04;;;;;;;6.10;2.90;;;18.30;99.90;;;;;;4993665;28;20464;-89
2023/08/23 05:14:29;;;;;;;6.07;3.13;;;18.30;99.90;;;;;;5011747;28;20026;-87
2023/08/23 05:16:55;;;;;;;6.57;2.92;;;18.30;99.90;;;;;;5004016;28;20037;-89
2023/08/23 05:19:20;;;;;;;7.72;3.10;;;18.20;99.90;;;;;;5030327;28;20053;-88
2023/08/23 05:21:47;;;;;;;7.47;3.40;;;18.20;99.90;;;;;;5017153;28;20470;-87
2023/08/23 05:24:13;;;;;;;5.72;3.13;;;18.20;99.90;;;;;;5024438;28;20452;-89
2023/08/23 05:26:39;;;;;;;5.93;3.42;;;18.20;99.90;;;;;;5029772;28;20481;-87
2023/08/23 05:29:04;;;;;;;5.80;3.40;;;18.20;99.90;;;;;;5014091;28;20037;-87
2023/08/23 05:31:30;;;;;;;5.35;2.63;;;18.30;99.90;;;;;;5026411;28;20022;-89
2023/08/23 05:33:56;;;;;;;6.68;3.10;;;18.30;99.90;;;;;;5028791;28;20056;-90
2023/08/23 05:36:21;;;;;;;5.43;2.97;;;18.30;99.90;;;;;;5030522;28;20029;-86
2023/08/23 05:38:49;;;;;;;6.55;3.17;;;18.40;99.90;;;;;;5029830;28;20107;-87
2023/08/23 05:41:14;;;;;;;5.03;2.90;;;18.40;99.90;;;;;;5029809;28;20041;-86
2023/08/23 05:43:40;;;;;;;6.43;2.97;;;18.30;99.90;;;;;;5030076;28;20022;-89
2023/08/23 05:46:05;;;;;;;6.28;3.30;;;18.40;99.90;;;;;;5029237;28;20116;-87
2023/08/23 05:48:34;;;;;;;4.38;2.97;;;18.40;99.90;;;;;;5012394;28;20041;-87
2023/08/23 05:51:02;;;;;;;8.98;3.15;;;18.50;99.90;;;;;;5027103;28;20014;-90
2023/08/23 05:53:27;;;;;;;8.95;3.33;;;18.50;99.90;;;;;;5008696;28;20497;-87
2023/08/23 05:55:53;;;;;;;6.20;2.95;;;18.60;99.90;;;;;;5010055;28;20259;-87
2023/08/23 05:58:19;;;;;;;7.07;2.80;;;18.50;99.90;;;;;;5010834;28;20088;-93
2023/08/23 06:00:46;;;;;;;5.53;2.78;;;18.50;99.90;;;;;;5029527;28;20521;-88
2023/08/23 06:03:15;;;;;;;5.38;3.05;;;18.60;99.90;;;;;;5031833;28;20033;-89
2023/08/23 06:05:41;;;;;;;5.47;3.20;;;18.60;99.90;;;;;;5032853;28;20428;-87
2023/08/23 06:08:10;;;;;;;7.00;3.28;;;18.60;99.90;;;;;;5027822;28;20083;-88
2023/08/23 06:10:36;;;;;;;5.15;2.95;;;18.60;99.90;;;;;;5011698;28;20020;-87
2023/08/23 06:13:02;;;;;;;6.00;2.72;;;18.60;99.90;;;;;;5012590;28;20120;-86
2023/08/23 06:15:28;;;;;;;8.80;2.97;;;18.60;99.90;;;;;;5014142;28;20036;-89
2023/08/23 06:17:54;;;;;;;7.30;3.15;;;18.70;99.90;;;;;;5028637;28;20075;-88
2023/08/23 06:20:20;;;;;;;5.20;2.90;;;18.70;99.90;;;;;;5011616;28;20033;-87
2023/08/23 06:22:46;;;;;;;5.20;2.72;;;18.70;99.90;;;;;;5011542;28;20022;-90
2023/08/23 06:25:12;;;;;;;6.53;3.00;;;18.80;99.90;;;;;;5029145;28;20073;-88
2023/08/23 06:27:38;;;;;;;3.95;2.85;;;18.70;99.90;;;;;;5011582;28;20043;-88
2023/08/23 06:30:04;;;;;;;6.75;2.97;;;18.70;99.90;;;;;;5012134;28;20072;-88
2023/08/23 06:32:30;;;;;;;5.28;3.20;;;18.80;99.90;;;;;;5028557;28;20025;-88
2023/08/23 06:34:56;;;;;;;7.63;2.83;;;18.80;99.90;;;;;;5010472;28;20087;-88
2023/08/23 06:37:22;;;;;;;6.03;3.30;;;18.80;99.90;;;;;;5027804;28;20049;-86
2023/08/23 06:39:50;;;;;;;5.53;3.03;;;18.80;99.90;;;;;;5029032;28;20421;-86
2023/08/23 06:42:19;;;;;;;4.05;2.90;;;18.90;99.90;;;;;;5029259;28;20029;-88
2023/08/23 06:44:44;;;;;;;7.82;3.13;;;18.90;99.90;;;;;;5029078;28;20022;-89
2023/08/23 06:47:10;;;;;;;5.75;2.90;;;18.90;99.90;;;;;;5028321;28;20433;-90
2023/08/23 06:49:36;;;;;;;8.30;3.15;;;19.00;99.90;;;;;;5028789;28;20065;-86
2023/08/23 06:52:02;;;;;;;4.82;2.88;;;19.00;99.90;;;;;;5029206;28;20107;-88
2023/08/23 06:54:28;;;;;;;5.60;3.20;;;19.10;99.90;;;;;;5028632;28;20021;-86
2023/08/23 06:56:53;;;;;;;5.80;3.33;;;19.10;99.90;;;;;;5011355;28;20030;-87
2023/08/23 06:59:19;;;;;;;6.70;3.05;;;19.10;99.90;;;;;;5028124;28;20025;-88
2023/08/23 07:01:46;;;;;;;4.93;2.95;;;19.10;99.90;;;;;;5010765;28;20030;-88
2023/08/23 07:04:11;;;;;;;5.25;3.25;;;19.20;99.90;;;;;;5027784;28;20018;-90
2023/08/23 07:06:37;;;;;;;9.30;3.33;;;19.20;99.90;;;;;;5029470;28;20034;-89
2023/08/23 07:09:03;;;;;;;7.35;3.28;;;19.10;99.90;;;;;;5015633;28;20129;-88
2023/08/23 07:11:29;;;;;;;9.68;3.13;;;19.00;99.90;;;;;;5029000;28;20053;-88
2023/08/23 07:13:55;;;;;;;6.50;3.13;;;19.20;99.90;;;;;;5028675;28;20064;-87
2023/08/23 07:16:21;;;;;;;6.97;3.30;;;19.20;99.90;;;;;;5028460;28;20053;-87
2023/08/23 07:18:46;;;;;;;7.35;3.30;;;19.10;99.90;;;;;;5028649;28;20426;-87
2023/08/23 07:21:12;;;;;;;4.85;3.20;;;19.10;99.90;;;;;;5029466;28;20043;-86
2023/08/23 07:23:38;;;;;;;5.80;3.03;;;19.30;99.90;;;;;;5015128;28;20394;-87
2023/08/23 07:26:04;;;;;;;3.92;3.08;;;19.30;99.90;;;;;;5033169;28;20101;-86
2023/08/23 07:28:30;;;;;;;4.82;3.17;;;19.40;99.90;;;;;;5013491;28;20073;-87
2023/08/23 07:30:58;;;;;;;5.57;3.10;;;19.50;99.90;;;;;;5014449;28;20025;-87
2023/08/23 07:33:25;;;;;;;6.20;3.28;;;19.50;99.90;;;;;;5013945;28;20120;-87
2023/08/23 07:35:59;;;;;;;5.35;2.90;;;19.50;99.90;;;;;;5013654;28;20075;-87
2023/08/23 07:38:25;;;;;;;5.47;2.80;;;19.50;99.90;;;;;;5031921;28;20068;-87
2023/08/23 07:40:55;;;;;;;4.75;3.10;;;19.60;99.90;;;;;;5031674;28;20028;-86
2023/08/23 07:43:21;;;;;;;4.00;2.70;;;19.50;99.90;;;;;;5031767;28;20026;-86
2023/08/23 07:45:54;;;;;;;6.82;2.92;;;19.50;99.90;;;;;;5022138;28;20104;-88
2023/08/23 07:48:21;;;;;;;7.20;2.70;;;19.60;99.90;;;;;;5013759;28;20044;-90
2023/08/23 07:50:49;;;;;;;5.68;3.25;;;19.60;99.90;;;;;;5030847;28;20040;-83
2023/08/23 07:53:15;;;;;;;5.43;2.40;;;19.70;99.90;;;;;;5031595;28;20021;-86
2023/08/23 07:55:40;;;;;;;6.78;2.53;;;19.70;99.90;;;;;;5031853;28;20014;-85
2023/08/23 07:58:06;;;;;;;3.30;2.30;;;19.80;99.90;;;;;;5013286;28;20032;-85
2023/08/23 08:00:32;;;;;;;3.45;2.05;;;19.80;99.90;;;;;;5031120;28;20382;-85
2023/08/23 08:02:57;;;;;;;8.32;2.22;;;19.90;99.90;;;;;;5031384;28;20026;-83
2023/08/23 08:05:23;;;;;;;5.57;2.00;;;20.00;99.90;;;;;;5029681;28;20059;-87
2023/08/23 08:07:48;;;;;;;4.63;1.67;;;20.00;99.90;;;;;;5031328;28;20043;-84
2023/08/23 08:10:14;;;;;;;3.53;1.88;;;20.10;99.90;;;;;;5031381;28;20100;-86
2023/08/23 08:12:39;;;;;;;3.03;2.05;;;20.20;99.90;;;;;;5031276;28;20036;-83
2023/08/23 08:15:06;;;;;;;4.45;1.70;;;20.20;99.90;;;;;;5029306;28;20021;-83
2023/08/23 08:17:34;;;;;;;4.00;1.80;;;20.10;99.90;;;;;;5030212;28;20026;-84
2023/08/23 08:20:05;;;;;;;5.10;1.90;;;20.10;99.90;;;;;;5030798;28;20656;-86
2023/08/23 08:22:31;;;;;;;3.95;1.80;;;20.00;99.90;;;;;;5030832;28;20504;-86
2023/08/23 08:24:57;;;;;;;9.43;1.85;;;20.20;99.90;;;;;;5013317;28;20025;-87
2023/08/23 08:27:23;;;;;;;6.38;1.83;;;20.20;99.90;;;;;;5031211;28;20029;-86
2023/08/23 08:29:49;;;;;;;3.42;1.70;;;20.10;99.90;;;;;;5030241;28;20033;-86
2023/08/23 08:32:14;;;;;;;3.65;1.80;;;20.20;99.90;;;;;;5030899;28;20018;-87
2023/08/23 08:34:41;;;;;;;4.88;2.60;;;20.30;99.90;;;;;;5030445;28;20030;-84
2023/08/23 08:37:06;;;;;;;5.35;2.20;;;20.30;99.90;;;;;;5031606;28;20025;-86
2023/08/23 08:39:32;;;;;;;5.07;1.90;;;20.40;99.90;;;;;;5013060;28;20099;-87
2023/08/23 08:41:59;;;;;;;3.95;2.10;;;20.50;99.90;;;;;;5030749;28;20040;-84
2023/08/23 08:44:25;;;;;;;3.42;1.90;;;20.60;99.90;;;;;;5030741;28;20022;-84
2023/08/23 08:46:51;;;;;;;3.70;1.60;;;20.60;99.90;;;;;;5030480;28;20029;-87
2023/08/23 08:49:17;;;;;;;3.45;1.60;;;20.80;99.90;;;;;;5029054;28;20527;-86
2023/08/23 08:51:47;;;;;;;3.22;1.70;;;20.80;99.90;;;;;;5029589;28;20033;-86
2023/08/23 08:54:15;;;;;;;5.05;1.63;;;20.90;99.90;;;;;;5029860;28;20389;-86
2023/08/23 08:56:43;;;;;;;3.78;1.60;;;20.90;99.90;;;;;;5031233;28;20033;-86
2023/08/23 08:59:09;;;;;;;2.80;1.50;;;21.20;99.90;;;;;;5031113;28;20025;-87
2023/08/23 09:01:37;;;;;;;2.42;1.60;;;21.30;99.90;;;;;;5030090;28;20026;-85
2023/08/23 09:04:03;;;;;;;3.67;1.60;;;21.40;99.90;;;;;;5011361;28;20254;-86
2023/08/23 09:06:30;;;;;;;4.25;1.63;;;21.30;99.90;;;;;;5030262;28;20033;-87
2023/08/23 09:08:56;;;;;;;4.85;1.60;;;21.50;99.90;;;;;;5030235;28;20109;-88
2023/08/23 09:11:22;;;;;;;6.32;1.90;;;21.80;99.90;;;;;;5029959;28;20045;-86
2023/08/23 09:13:48;;;;;;;3.67;1.52;;;21.60;99.90;;;;;;5030063;28;20485;-86
2023/08/23 09:16:14;;;;;;;4.75;1.80;;;21.60;99.90;;;;;;5029847;28;20107;-84
2023/08/23 09:18:44;;;;;;;3.72;1.50;;;21.70;99.90;;;;;;5012088;28;20386;-87
2023/08/23 09:21:12;;;;;;;6.55;1.70;;;21.90;99.90;;;;;;5030181;28;20056;-85
2023/08/23 09:23:37;;;;;;;5.18;1.80;;;22.00;99.90;;;;;;5029532;28;20401;-87
2023/08/23 09:26:08;;;;;;;4.03;1.58;;;22.10;99.90;;;;;;5011942;28;20251;-86
2023/08/23 09:28:34;;;;;;;2.90;1.60;;;22.10;99.90;;;;;;5029468;28;20052;-84
2023/08/23 09:31:00;;;;;;;6.63;2.10;;;22.20;99.90;;;;;;5029448;28;20025;-83
2023/08/23 09:33:25;;;;;;;6.80;1.80;;;22.20;99.90;;;;;;5028715;28;20574;-87
2023/08/23 09:35:51;;;;;;;3.38;1.70;;;22.20;99.90;;;;;;5028961;28;20520;-83
2023/08/23 09:38:21;;;;;;;8.27;1.90;;;22.30;99.90;;;;;;5028882;28;20060;-86
2023/08/23 09:40:47;;;;;;;3.65;1.80;;;22.40;99.90;;;;;;5029445;28;20025;-85
2023/08/23 09:43:15;;;;;;;6.13;2.10;;;22.40;99.90;;;;;;5029386;28;20026;-85
2023/08/23 09:45:41;;;;;;;3.30;1.60;;;22.40;99.90;;;;;;5029968;28;20041;-84
2023/08/23 09:48:10;;;;;;;3.15;1.70;;;22.50;99.90;;;;;;5028185;28;20037;-86
2023/08/23 09:50:36;;;;;;;2.47;1.40;;;22.40;99.90;;;;;;5028804;28;20504;-84
2023/08/23 09:53:10;;;;;;;1.90;1.40;;;22.50;99.90;;;;;;5029094;28;20037;-85
2023/08/23 09:55:36;;;;;;;5.50;1.85;;;22.70;99.90;;;;;;5029289;28;20045;-87
2023/08/23 09:58:02;;;;;;;4.93;1.73;;;22.80;99.90;;;;;;5010537;28;20029;-85
2023/08/23 10:00:29;;;;;;;2.10;1.60;;;22.90;99.90;;;;;;5028137;28;20436;-84
2023/08/23 10:02:57;;;;;;;3.97;1.60;;;22.90;99.90;;;;;;5029479;28;20029;-84
2023/08/23 10:05:25;;;;;;;2.42;1.50;;;22.90;99.90;;;;;;5029088;28;20507;-84
2023/08/23 10:07:54;;;;;;;5.77;3.67;;;22.90;99.90;;;;;;5029036;28;20029;-84
2023/08/23 10:10:20;;;;;;;8.45;2.90;;;23.00;99.90;;;;;;5029193;28;20304;-84
2023/08/23 10:12:48;;;;;;;4.28;2.60;;;23.00;99.90;;;;;;5029956;28;20061;-85
2023/08/23 10:15:16;;;;;;;9.10;3.00;;;23.00;99.90;;;;;;5028837;28;20048;-88
2023/08/23 10:17:44;;;;;;;10.32;5.72;;;23.10;99.90;;;;;;5028797;28;20025;-87
2023/08/23 10:20:11;;;;;;;5.78;3.20;;;23.30;99.90;;;;;;5028877;28;20041;-84
2023/08/23 10:22:37;;;;;;;5.18;1.80;;;23.50;99.90;;;;;;5029108;28;20281;-84
2023/08/23 10:25:19;;;;;;;8.35;3.25;;;23.50;99.90;;;;;;5029145;28;20190;-88
2023/08/23 10:27:46;;;;;;;3.85;3.00;;;23.50;99.90;;;;;;5029795;28;20362;-84
2023/08/23 10:30:24;;;;;;;5.75;2.40;;;23.60;99.90;;;;;;5029435;28;20037;-88
2023/08/23 10:32:51;;;;;;;3.35;1.65;;;23.50;99.90;;;;;;5028237;28;20482;-85
2023/08/23 10:35:31;;;;;;;3.50;1.40;;;23.40;99.90;;;;;;5027457;28;20493;-85
2023/08/23 10:37:57;;;;;;;3.65;1.83;;;23.60;99.90;;;;;;5028758;28;20504;-86
2023/08/23 10:40:26;;;;;;;4.43;2.25;;;23.70;99.90;;;;;;5028819;28;20021;-83
2023/08/23 10:42:52;;;;;;;7.55;2.30;;;23.90;99.90;;;;;;5028623;28;20072;-83
2023/08/23 10:45:18;;;;;;;3.45;1.80;;;23.90;99.90;;;;;;5028726;28;20431;-84
2023/08/23 10:47:48;;;;;;;3.92;1.92;;;24.00;99.90;;;;;;5029433;28;20036;-86
2023/08/23 10:50:15;;;;;;;6.43;1.83;;;24.10;99.90;;;;;;5028825;28;20061;-84
2023/08/23 10:52:41;;;;;;;4.40;2.10;;;24.30;99.90;;;;;;5028858;28;20025;-87
2023/08/23 10:55:07;;;;;;;4.25;2.00;;;24.20;99.90;;;;;;5029266;28;20404;-87
2023/08/23 10:57:33;;;;;;;2.17;1.88;;;24.00;99.90;;;;;;5032860;28;20017;-84
2023/08/23 10:59:58;;;;;;;6.65;2.67;;;24.00;99.90;;;;;;5015052;28;20397;-84
2023/08/23 11:02:24;;;;;;;3.70;1.90;;;24.10;99.90;;;;;;5032798;28;20068;-84
2023/08/23 11:04:49;;;;;;;8.25;2.42;;;24.30;99.90;;;;;;5030796;28;20092;-84
2023/08/23 11:07:15;;;;;;;4.78;2.10;;;24.20;99.90;;;;;;5019916;28;20021;-84
2023/08/23 11:09:41;;;;;;;9.27;2.05;;;24.20;99.90;;;;;;5047740;28;20052;-86
2023/08/23 11:12:07;;;;;;;3.83;2.20;;;24.30;99.90;;;;;;5029853;28;20029;-85
2023/08/23 11:14:33;;;;;;;5.65;2.08;;;24.40;99.90;;;;;;5031438;28;20022;-86
2023/08/23 11:16:59;;;;;;;2.67;2.05;;;24.50;99.90;;;;;;5014134;28;20083;-85
2023/08/23 11:19:24;;;;;;;6.78;2.30;;;24.40;99.90;;;;;;5030994;28;20033;-86
2023/08/23 11:21:51;;;;;;;3.80;2.00;;;24.50;99.90;;;;;;5032176;28;20116;-85
2023/08/23 11:24:17;;;;;;;6.00;2.08;;;24.50;99.90;;;;;;5032513;28;20553;-86
2023/08/23 11:26:43;;;;;;;3.17;1.83;;;24.50;99.90;;;;;;5032191;28;20075;-84
2023/08/23 11:29:08;;;;;;;5.28;2.20;;;24.70;99.90;;;;;;5031969;28;20041;-84
2023/08/23 11:31:35;;;;;;;2.90;1.80;;;24.70;99.90;;;;;;5032098;28;20025;-85
2023/08/23 11:34:08;;;;;;;6.13;2.00;;;24.70;99.90;;;;;;5029926;28;20040;-84
2023/08/23 11:36:36;;;;;;;3.63;1.70;;;24.80;99.90;;;;;;5031514;28;20107;-84
2023/08/23 11:39:06;;;;;;;2.92;1.75;;;24.70;99.90;;;;;;5030249;28;20025;-84
2023/08/23 11:41:35;;;;;;;3.92;2.03;;;24.80;99.90;;;;;;5031587;28;20741;-85
2023/08/23 11:44:04;;;;;;;5.40;2.22;;;25.00;99.90;;;;;;5031631;28;20440;-84
2023/08/23 11:46:31;;;;;;;3.10;1.85;;;24.80;99.90;;;;;;5031528;28;20036;-85
2023/08/23 11:48:57;;;;;;;5.07;2.00;;;24.90;99.90;;;;;;5031604;28;20080;-85
2023/08/23 11:51:22;;;;;;;5.68;2.10;;;25.10;99.90;;;;;;5031098;28;20029;-85
2023/08/23 11:53:57;;;;;;;4.10;2.28;;;25.30;99.90;;;;;;5014163;28;20029;-85
2023/08/23 11:56:26;;;;;;;4.45;1.90;;;25.40;99.90;;;;;;5031109;28;20021;-86
2023/08/23 11:58:52;;;;;;;6.28;2.10;;;25.50;99.90;;;;;;5031054;28;20029;-83
2023/08/23 12:01:17;;;;;;;4.47;2.10;;;25.60;99.90;;;;;;5031658;28;20374;-84
2023/08/23 12:03:44;;;;;;;4.38;2.03;;;25.60;99.90;;;;;;5031292;28;20029;-84
2023/08/23 12:06:10;;;;;;;4.40;2.20;;;25.40;99.90;;;;;;5011959;28;20041;-85
2023/08/23 12:08:35;;;;;;;3.65;1.90;;;25.60;99.90;;;;;;5030315;28;20037;-84
2023/08/23 12:11:02;;;;;;;3.75;2.22;;;25.70;99.90;;;;;;5030760;28;20143;-84
2023/08/23 12:13:27;;;;;;;5.70;2.05;;;25.80;99.90;;;;;;5030809;28;20075;-84
2023/08/23 12:15:53;;;;;;;9.07;2.22;;;25.90;99.90;;;;;;5012131;28;20124;-85
2023/08/23 12:18:18;;;;;;;5.15;1.98;;;25.90;99.90;;;;;;5031918;28;20017;-88
2023/08/23 12:20:44;;;;;;;9.60;1.90;;;25.90;99.90;;;;;;5030881;28;20041;-85
2023/08/23 12:23:09;;;;;;;7.75;2.30;;;26.00;99.90;;;;;;5031225;28;20033;-84
2023/08/23 12:25:35;;;;;;;3.75;1.90;;;25.90;99.90;;;;;;5031178;28;20032;-87
2023/08/23 12:28:00;;;;;;;4.57;2.40;;;26.00;99.90;;;;;;5030882;28;20064;-85
2023/08/23 12:30:26;;;;;;;6.82;2.60;;;25.80;99.90;;;;;;5028985;28;20032;-85
2023/08/23 12:32:52;;;;;;;7.15;2.30;;;25.90;99.90;;;;;;5031753;28;20025;-88
2023/08/23 12:35:18;;;;;;;9.48;2.10;;;26.00;99.90;;;;;;5031330;28;20021;-85
2023/08/23 12:37:44;;;;;;;6.13;2.22;;;26.00;99.90;;;;;;5029711;28;20075;-85
2023/08/23 12:40:10;;;;;;;4.43;2.08;;;26.10;99.90;;;;;;5029641;28;20079;-87
2023/08/23 12:42:36;;;;;;;4.47;2.00;;;26.00;99.90;;;;;;5030656;28;20079;-86
2023/08/23 12:45:02;;;;;;;7.13;2.47;;;26.10;99.90;;;;;;5030681;28;20018;-85